sensor_id;sensor_type;location;lat;lon;timestamp;P1;durP1;ratioP1;P2;durP2;ratioP2
83824;SDS011;73839;54.448;-0.944;2023-12-20T00:02:50;1.5;;;0.4;;
83824;SDS011;73839;54.448;-0.944;2023-12-20T00:05:50;0.9;;;0.2;;
83824;SDS011;73839;54.448;-0.944;2023-12-20T00:08:50;1;;;0.3;;
83824;SDS011;73839;54.448;-0.944;2023-12-20T00:11:50;1.4;;;0.6;;
83824;SDS011;73839;54.448;-0.944;2023-12-20T00:14:50;1.1;;;0.3;;
83824;SDS011;73839;54.448;-0.944;2023-12-20T00:17:50;1.2;;;0.5;;
83824;SDS011;73839;54.448;-0.944;2023-12-20T00:20:50;1.3;;;0.3;;
83824;SDS011;73839;54.448;-0.944;2023-12-20T00:23:50;0.9;;;0.3;;
83824;SDS011;73839;54.448;-0.944;2023-12-20T00:26:50;1.4;;;0.4;;
83824;SDS011;73839;54.448;-0.944;2023-12-20T00:29:50;1.3;;;0.2;;
83824;SDS011;73839;54.448;-0.944;2023-12-20T00:32:50;0.8;;;0.3;;
83824;SDS011;73839;54.448;-0.944;2023-12-20T00:35:50;1.1;;;0.4;;
83824;SDS011;73839;54.448;-0.944;2023-12-20T00:38:50;0.9;;;0.2;;
83824;SDS011;73839;54.448;-0.944;2023-12-20T00:41:50;0.9;;;0.3;;
83824;SDS011;73839;54.448;-0.944;2023-12-20T00:44:50;1.6;;;0.4;;
83824;SDS011;73839;54.448;-0.944;2023-12-20T00:47:50;1.1;;;0.3;;
83824;SDS011;73839;54.448;-0.944;2023-12-20T00:50:50;0.9;;;0.3;;
83824;SDS011;73839;54.448;-0.944;2023-12-20T00:53:50;1.2;;;0.3;;
83824;SDS011;73839;54.448;-0.944;2023-12-20T00:56:50;1;;;0.3;;
83824;SDS011;73839;54.448;-0.944;2023-12-20T00:59:50;0.8;;;0.4;;
83824;SDS011;73839;54.448;-0.944;2023-12-20T01:03:20;0.7;;;0.3;;
83824;SDS011;73839;54.448;-0.944;2023-12-20T01:06:20;1.4;;;0.3;;
83824;SDS011;73839;54.448;-0.944;2023-12-20T01:09:20;0.5;;;0.2;;
83824;SDS011;73839;54.448;-0.944;2023-12-20T01:12:20;1;;;0.3;;
83824;SDS011;73839;54.448;-0.944;2023-12-20T01:15:20;1;;;0.4;;
83824;SDS011;73839;54.448;-0.944;2023-12-20T01:18:20;1.5;;;0.3;;
83824;SDS011;73839;54.448;-0.944;2023-12-20T01:21:20;0.7;;;0.4;;
83824;SDS011;73839;54.448;-0.944;2023-12-20T01:24:20;0.9;;;0.2;;
83824;SDS011;73839;54.448;-0.944;2023-12-20T01:27:20;1.3;;;0.2;;
83824;SDS011;73839;54.448;-0.944;2023-12-20T01:30:20;1.4;;;0.3;;
83824;SDS011;73839;54.448;-0.944;2023-12-20T01:33:20;0.9;;;0.3;;
83824;SDS011;73839;54.448;-0.944;2023-12-20T01:36:20;1.2;;;0.3;;
83824;SDS011;73839;54.448;-0.944;2023-12-20T01:39:20;0.8;;;0.3;;
83824;SDS011;73839;54.448;-0.944;2023-12-20T01:42:20;0.8;;;0.3;;
83824;SDS011;73839;54.448;-0.944;2023-12-20T01:45:20;1;;;0.2;;
83824;SDS011;73839;54.448;-0.944;2023-12-20T01:48:20;0.8;;;0.3;;
83824;SDS011;73839;54.448;-0.944;2023-12-20T01:51:20;0.8;;;0.3;;
83824;SDS011;73839;54.448;-0.944;2023-12-20T01:54:20;1.3;;;0.3;;
83824;SDS011;73839;54.448;-0.944;2023-12-20T01:57:20;0.7;;;0.3;;
83824;SDS011;73839;54.448;-0.944;2023-12-20T02:00:20;0.8;;;0.4;;
83824;SDS011;73839;54.448;-0.944;2023-12-20T02:03:20;0.7;;;0.3;;
83824;SDS011;73839;54.448;-0.944;2023-12-20T02:06:20;0.9;;;0.3;;
83824;SDS011;73839;54.448;-0.944;2023-12-20T02:09:20;0.9;;;0.4;;
83824;SDS011;73839;54.448;-0.944;2023-12-20T02:12:20;0.5;;;0.2;;
83824;SDS011;73839;54.448;-0.944;2023-12-20T02:15:20;1.3;;;0.2;;
83824;SDS011;73839;54.448;-0.944;2023-12-20T02:18:20;1.1;;;0.4;;
83824;SDS011;73839;54.448;-0.944;2023-12-20T02:21:31;1;;;0.2;;
83824;SDS011;73839;54.448;-0.944;2023-12-20T02:24:20;0.8;;;0.2;;
83824;SDS011;73839;54.448;-0.944;2023-12-20T02:27:20;1;;;0.2;;
83824;SDS011;73839;54.448;-0.944;2023-12-20T02:30:20;0.6;;;0.2;;
83824;SDS011;73839;54.448;-0.944;2023-12-20T02:33:20;0.7;;;0.2;;
83824;SDS011;73839;54.448;-0.944;2023-12-20T02:36:20;1.1;;;0.3;;
83824;SDS011;73839;54.448;-0.944;2023-12-20T02:39:20;0.9;;;0.3;;
83824;SDS011;73839;54.448;-0.944;2023-12-20T02:42:20;0.7;;;0.3;;
83824;SDS011;73839;54.448;-0.944;2023-12-20T02:45:20;0.5;;;0.2;;
83824;SDS011;73839;54.448;-0.944;2023-12-20T02:48:20;0.9;;;0.4;;
83824;SDS011;73839;54.448;-0.944;2023-12-20T02:51:20;1.1;;;0.3;;
83824;SDS011;73839;54.448;-0.944;2023-12-20T02:54:20;0.7;;;0.3;;
83824;SDS011;73839;54.448;-0.944;2023-12-20T02:57:20;0.4;;;0.2;;
83824;SDS011;73839;54.448;-0.944;2023-12-20T03:00:20;0.6;;;0.3;;
83824;SDS011;73839;54.448;-0.944;2023-12-20T03:03:20;0.7;;;0.3;;
83824;SDS011;73839;54.448;-0.944;2023-12-20T03:06:20;1.2;;;0.3;;
83824;SDS011;73839;54.448;-0.944;2023-12-20T03:09:20;0.8;;;0.3;;
83824;SDS011;73839;54.448;-0.944;2023-12-20T03:12:20;0.9;;;0.3;;
83824;SDS011;73839;54.448;-0.944;2023-12-20T03:15:20;1;;;0.4;;
83824;SDS011;73839;54.448;-0.944;2023-12-20T03:18:20;1.5;;;0.2;;
83824;SDS011;73839;54.448;-0.944;2023-12-20T03:21:20;1;;;0.3;;
83824;SDS011;73839;54.448;-0.944;2023-12-20T03:24:20;0.9;;;0.3;;
83824;SDS011;73839;54.448;-0.944;2023-12-20T03:27:20;0.7;;;0.3;;
83824;SDS011;73839;54.448;-0.944;2023-12-20T03:30:20;0.9;;;0.2;;
83824;SDS011;73839;54.448;-0.944;2023-12-20T03:33:50;1.4;;;0.2;;
83824;SDS011;73839;54.448;-0.944;2023-12-20T03:36:50;1;;;0.3;;
83824;SDS011;73839;54.448;-0.944;2023-12-20T03:39:50;0.8;;;0.3;;
83824;SDS011;73839;54.448;-0.944;2023-12-20T03:42:50;0.5;;;0.4;;
83824;SDS011;73839;54.448;-0.944;2023-12-20T03:45:50;0.7;;;0.2;;
83824;SDS011;73839;54.448;-0.944;2023-12-20T03:48:50;0.5;;;0.2;;
83824;SDS011;73839;54.448;-0.944;2023-12-20T03:51:50;0.7;;;0.3;;
83824;SDS011;73839;54.448;-0.944;2023-12-20T03:54:50;0.5;;;0.2;;
83824;SDS011;73839;54.448;-0.944;2023-12-20T03:57:50;0.9;;;0.2;;
83824;SDS011;73839;54.448;-0.944;2023-12-20T04:00:50;0.5;;;0.2;;
83824;SDS011;73839;54.448;-0.944;2023-12-20T04:03:50;0.8;;;0.3;;
83824;SDS011;73839;54.448;-0.944;2023-12-20T04:06:50;0.5;;;0.3;;
83824;SDS011;73839;54.448;-0.944;2023-12-20T04:09:50;2;;;0.4;;
83824;SDS011;73839;54.448;-0.944;2023-12-20T04:12:50;1;;;0.3;;
83824;SDS011;73839;54.448;-0.944;2023-12-20T04:15:50;0.4;;;0.2;;
83824;SDS011;73839;54.448;-0.944;2023-12-20T04:18:50;0.5;;;0.2;;
83824;SDS011;73839;54.448;-0.944;2023-12-20T04:21:50;0.9;;;0.3;;
83824;SDS011;73839;54.448;-0.944;2023-12-20T04:24:50;1.4;;;0.3;;
83824;SDS011;73839;54.448;-0.944;2023-12-20T04:27:50;0.7;;;0.2;;
83824;SDS011;73839;54.448;-0.944;2023-12-20T04:30:50;1.4;;;0.3;;
83824;SDS011;73839;54.448;-0.944;2023-12-20T04:33:50;0.4;;;0.1;;
83824;SDS011;73839;54.448;-0.944;2023-12-20T04:36:50;0.7;;;0.3;;
83824;SDS011;73839;54.448;-0.944;2023-12-20T04:39:50;0.8;;;0.2;;
83824;SDS011;73839;54.448;-0.944;2023-12-20T04:42:50;0.4;;;0.1;;
83824;SDS011;73839;54.448;-0.944;2023-12-20T04:45:50;0.7;;;0.2;;
83824;SDS011;73839;54.448;-0.944;2023-12-20T04:48:50;1.1;;;0.2;;
83824;SDS011;73839;54.448;-0.944;2023-12-20T04:51:50;0.7;;;0.2;;
83824;SDS011;73839;54.448;-0.944;2023-12-20T04:54:50;0.3;;;0.1;;
83824;SDS011;73839;54.448;-0.944;2023-12-20T04:57:50;0.7;;;0.2;;
83824;SDS011;73839;54.448;-0.944;2023-12-20T05:00:50;0.6;;;0.2;;
83824;SDS011;73839;54.448;-0.944;2023-12-20T05:03:50;0.6;;;0.2;;
83824;SDS011;73839;54.448;-0.944;2023-12-20T05:06:50;1.1;;;0.3;;
83824;SDS011;73839;54.448;-0.944;2023-12-20T05:09:50;0.8;;;0.2;;
83824;SDS011;73839;54.448;-0.944;2023-12-20T05:12:50;0.6;;;0.3;;
83824;SDS011;73839;54.448;-0.944;2023-12-20T05:15:50;0.5;;;0.1;;
83824;SDS011;73839;54.448;-0.944;2023-12-20T05:18:50;0.7;;;0.2;;
83824;SDS011;73839;54.448;-0.944;2023-12-20T05:21:50;1;;;0.2;;
83824;SDS011;73839;54.448;-0.944;2023-12-20T05:24:50;0.5;;;0.2;;
83824;SDS011;73839;54.448;-0.944;2023-12-20T05:27:50;0.5;;;0.2;;
83824;SDS011;73839;54.448;-0.944;2023-12-20T05:30:50;0.6;;;0.2;;
83824;SDS011;73839;54.448;-0.944;2023-12-20T05:33:50;0.8;;;0.2;;
83824;SDS011;73839;54.448;-0.944;2023-12-20T05:36:50;1;;;0.3;;
83824;SDS011;73839;54.448;-0.944;2023-12-20T05:39:50;0.8;;;0.2;;
83824;SDS011;73839;54.448;-0.944;2023-12-20T05:42:50;1.5;;;0.3;;
83824;SDS011;73839;54.448;-0.944;2023-12-20T05:45:50;0.5;;;0.2;;
83824;SDS011;73839;54.448;-0.944;2023-12-20T05:48:50;0.7;;;0.2;;
83824;SDS011;73839;54.448;-0.944;2023-12-20T05:51:50;0.6;;;0.3;;
83824;SDS011;73839;54.448;-0.944;2023-12-20T05:54:50;1.2;;;0.2;;
83824;SDS011;73839;54.448;-0.944;2023-12-20T05:57:50;0.5;;;0.2;;
83824;SDS011;73839;54.448;-0.944;2023-12-20T06:00:50;0.8;;;0.3;;
83824;SDS011;73839;54.448;-0.944;2023-12-20T06:04:20;0.8;;;0.2;;
83824;SDS011;73839;54.448;-0.944;2023-12-20T06:07:20;1.9;;;0.2;;
83824;SDS011;73839;54.448;-0.944;2023-12-20T06:10:20;0.6;;;0.2;;
83824;SDS011;73839;54.448;-0.944;2023-12-20T06:13:20;0.6;;;0.2;;
83824;SDS011;73839;54.448;-0.944;2023-12-20T06:16:20;0.7;;;0.2;;
83824;SDS011;73839;54.448;-0.944;2023-12-20T06:19:20;0.9;;;0.2;;
83824;SDS011;73839;54.448;-0.944;2023-12-20T06:22:20;0.6;;;0.2;;
83824;SDS011;73839;54.448;-0.944;2023-12-20T06:25:20;0.6;;;0.2;;
83824;SDS011;73839;54.448;-0.944;2023-12-20T06:28:20;0.8;;;0.2;;
83824;SDS011;73839;54.448;-0.944;2023-12-20T06:31:20;1;;;0.2;;
83824;SDS011;73839;54.448;-0.944;2023-12-20T06:34:20;0.9;;;0.4;;
83824;SDS011;73839;54.448;-0.944;2023-12-20T06:37:20;0.7;;;0.3;;
83824;SDS011;73839;54.448;-0.944;2023-12-20T06:40:20;0.5;;;0.2;;
83824;SDS011;73839;54.448;-0.944;2023-12-20T06:43:20;0.4;;;0.1;;
83824;SDS011;73839;54.448;-0.944;2023-12-20T06:46:20;0.9;;;0.2;;
83824;SDS011;73839;54.448;-0.944;2023-12-20T06:49:20;1;;;0.3;;
83824;SDS011;73839;54.448;-0.944;2023-12-20T06:52:20;0.6;;;0.2;;
83824;SDS011;73839;54.448;-0.944;2023-12-20T06:55:20;1.4;;;0.2;;
83824;SDS011;73839;54.448;-0.944;2023-12-20T06:58:20;0.7;;;0.2;;
83824;SDS011;73839;54.448;-0.944;2023-12-20T07:01:20;1.2;;;0.4;;
83824;SDS011;73839;54.448;-0.944;2023-12-20T07:04:20;0.7;;;0.2;;
83824;SDS011;73839;54.448;-0.944;2023-12-20T07:07:20;1;;;0.3;;
83824;SDS011;73839;54.448;-0.944;2023-12-20T07:10:20;0.9;;;0.2;;
83824;SDS011;73839;54.448;-0.944;2023-12-20T07:13:20;1.6;;;0.5;;
83824;SDS011;73839;54.448;-0.944;2023-12-20T07:16:20;0.7;;;0.2;;
83824;SDS011;73839;54.448;-0.944;2023-12-20T07:19:20;1.3;;;0.2;;
83824;SDS011;73839;54.448;-0.944;2023-12-20T07:22:20;0.9;;;0.3;;
83824;SDS011;73839;54.448;-0.944;2023-12-20T07:25:20;0.6;;;0.2;;
83824;SDS011;73839;54.448;-0.944;2023-12-20T07:28:20;0.8;;;0.2;;
83824;SDS011;73839;54.448;-0.944;2023-12-20T07:31:20;0.7;;;0.2;;
83824;SDS011;73839;54.448;-0.944;2023-12-20T07:34:20;0.8;;;0.4;;
83824;SDS011;73839;54.448;-0.944;2023-12-20T07:37:20;1;;;0.3;;
83824;SDS011;73839;54.448;-0.944;2023-12-20T07:40:20;0.8;;;0.3;;
83824;SDS011;73839;54.448;-0.944;2023-12-20T07:43:20;1.4;;;0.4;;
83824;SDS011;73839;54.448;-0.944;2023-12-20T07:46:20;1.4;;;0.3;;
83824;SDS011;73839;54.448;-0.944;2023-12-20T07:49:20;1.1;;;0.3;;
83824;SDS011;73839;54.448;-0.944;2023-12-20T07:52:20;0.7;;;0.2;;
83824;SDS011;73839;54.448;-0.944;2023-12-20T07:55:20;1.1;;;0.4;;
83824;SDS011;73839;54.448;-0.944;2023-12-20T07:58:20;0.9;;;0.3;;
83824;SDS011;73839;54.448;-0.944;2023-12-20T08:01:20;1;;;0.2;;
83824;SDS011;73839;54.448;-0.944;2023-12-20T08:04:20;0.8;;;0.2;;
83824;SDS011;73839;54.448;-0.944;2023-12-20T08:07:20;1.3;;;0.4;;
83824;SDS011;73839;54.448;-0.944;2023-12-20T08:10:20;0.8;;;0.2;;
83824;SDS011;73839;54.448;-0.944;2023-12-20T08:13:20;0.8;;;0.3;;
83824;SDS011;73839;54.448;-0.944;2023-12-20T08:16:20;1.1;;;0.3;;
83824;SDS011;73839;54.448;-0.944;2023-12-20T08:19:20;1.6;;;0.5;;
83824;SDS011;73839;54.448;-0.944;2023-12-20T08:22:20;0.7;;;0.4;;
83824;SDS011;73839;54.448;-0.944;2023-12-20T08:25:20;0.9;;;0.3;;
83824;SDS011;73839;54.448;-0.944;2023-12-20T08:28:20;1;;;0.3;;
83824;SDS011;73839;54.448;-0.944;2023-12-20T08:31:20;1.2;;;0.3;;
83824;SDS011;73839;54.448;-0.944;2023-12-20T08:34:50;1;;;0.3;;
83824;SDS011;73839;54.448;-0.944;2023-12-20T08:37:50;1.6;;;0.4;;
83824;SDS011;73839;54.448;-0.944;2023-12-20T08:40:50;1.5;;;0.3;;
83824;SDS011;73839;54.448;-0.944;2023-12-20T08:43:50;1;;;0.3;;
83824;SDS011;73839;54.448;-0.944;2023-12-20T08:46:50;0.7;;;0.3;;
83824;SDS011;73839;54.448;-0.944;2023-12-20T08:49:50;0.7;;;0.2;;
83824;SDS011;73839;54.448;-0.944;2023-12-20T08:52:50;1.1;;;0.4;;
83824;SDS011;73839;54.448;-0.944;2023-12-20T08:55:50;0.6;;;0.2;;
83824;SDS011;73839;54.448;-0.944;2023-12-20T08:58:50;1;;;0.3;;
83824;SDS011;73839;54.448;-0.944;2023-12-20T09:01:50;0.8;;;0.2;;
83824;SDS011;73839;54.448;-0.944;2023-12-20T09:04:50;1.1;;;0.4;;
83824;SDS011;73839;54.448;-0.944;2023-12-20T09:07:50;0.9;;;0.3;;
83824;SDS011;73839;54.448;-0.944;2023-12-20T09:10:50;0.9;;;0.3;;
83824;SDS011;73839;54.448;-0.944;2023-12-20T09:13:50;1.3;;;0.3;;
83824;SDS011;73839;54.448;-0.944;2023-12-20T09:16:50;1.1;;;0.2;;
83824;SDS011;73839;54.448;-0.944;2023-12-20T09:19:50;0.6;;;0.2;;
83824;SDS011;73839;54.448;-0.944;2023-12-20T09:22:50;0.6;;;0.2;;
83824;SDS011;73839;54.448;-0.944;2023-12-20T09:25:50;0.7;;;0.2;;
83824;SDS011;73839;54.448;-0.944;2023-12-20T09:28:50;1.4;;;0.3;;
83824;SDS011;73839;54.448;-0.944;2023-12-20T09:31:50;0.6;;;0.3;;
83824;SDS011;73839;54.448;-0.944;2023-12-20T09:34:50;0.5;;;0.2;;
83824;SDS011;73839;54.448;-0.944;2023-12-20T09:37:50;0.7;;;0.3;;
83824;SDS011;73839;54.448;-0.944;2023-12-20T09:40:50;0.9;;;0.2;;
83824;SDS011;73839;54.448;-0.944;2023-12-20T09:43:50;0.8;;;0.1;;
83824;SDS011;73839;54.448;-0.944;2023-12-20T09:46:50;1;;;0.4;;
83824;SDS011;73839;54.448;-0.944;2023-12-20T09:49:50;1.4;;;0.3;;
83824;SDS011;73839;54.448;-0.944;2023-12-20T09:52:51;0.8;;;0.2;;
83824;SDS011;73839;54.448;-0.944;2023-12-20T09:55:50;1;;;0.2;;
83824;SDS011;73839;54.448;-0.944;2023-12-20T09:58:50;0.8;;;0.2;;
83824;SDS011;73839;54.448;-0.944;2023-12-20T10:01:50;0.5;;;0.2;;
83824;SDS011;73839;54.448;-0.944;2023-12-20T10:04:50;0.8;;;0.2;;
83824;SDS011;73839;54.448;-0.944;2023-12-20T10:07:50;0.9;;;0.2;;
83824;SDS011;73839;54.448;-0.944;2023-12-20T10:10:50;0.4;;;0.2;;
83824;SDS011;73839;54.448;-0.944;2023-12-20T10:13:50;0.5;;;0.2;;
83824;SDS011;73839;54.448;-0.944;2023-12-20T10:16:50;0.8;;;0.3;;
83824;SDS011;73839;54.448;-0.944;2023-12-20T10:19:50;0.5;;;0.2;;
83824;SDS011;73839;54.448;-0.944;2023-12-20T10:22:50;0.4;;;0.1;;
83824;SDS011;73839;54.448;-0.944;2023-12-20T10:28:53;0.8;;;0.4;;
83824;SDS011;73839;54.448;-0.944;2023-12-20T10:31:50;0.7;;;0.1;;
83824;SDS011;73839;54.448;-0.944;2023-12-20T10:34:50;0.6;;;0.3;;
83824;SDS011;73839;54.448;-0.944;2023-12-20T10:37:50;0.6;;;0.2;;
83824;SDS011;73839;54.448;-0.944;2023-12-20T10:40:52;0.5;;;0.2;;
83824;SDS011;73839;54.448;-0.944;2023-12-20T10:43:51;1.1;;;0.2;;
83824;SDS011;73839;54.448;-0.944;2023-12-20T10:46:50;0.7;;;0.2;;
83824;SDS011;73839;54.448;-0.944;2023-12-20T10:49:50;0.4;;;0.2;;
83824;SDS011;73839;54.448;-0.944;2023-12-20T10:52:50;0.4;;;0.2;;
83824;SDS011;73839;54.448;-0.944;2023-12-20T10:55:50;0.9;;;0.2;;
83824;SDS011;73839;54.448;-0.944;2023-12-20T10:58:50;0.6;;;0.2;;
83824;SDS011;73839;54.448;-0.944;2023-12-20T11:02:21;0.4;;;0.2;;
83824;SDS011;73839;54.448;-0.944;2023-12-20T11:08:22;0.9;;;0.2;;
83824;SDS011;73839;54.448;-0.944;2023-12-20T11:14:22;0.5;;;0.3;;
83824;SDS011;73839;54.448;-0.944;2023-12-20T11:17:20;0.7;;;0.1;;
83824;SDS011;73839;54.448;-0.944;2023-12-20T11:20:21;0.4;;;0.2;;
83824;SDS011;73839;54.448;-0.944;2023-12-20T11:23:20;0.6;;;0.2;;
83824;SDS011;73839;54.448;-0.944;2023-12-20T11:26:26;0.4;;;0.1;;
83824;SDS011;73839;54.448;-0.944;2023-12-20T11:35:20;0.8;;;0.3;;
83824;SDS011;73839;54.448;-0.944;2023-12-20T11:38:20;0.5;;;0.1;;
83824;SDS011;73839;54.448;-0.944;2023-12-20T11:41:22;0.3;;;0.2;;
83824;SDS011;73839;54.448;-0.944;2023-12-20T11:44:20;0.3;;;0.1;;
83824;SDS011;73839;54.448;-0.944;2023-12-20T11:47:20;0.4;;;0.1;;
83824;SDS011;73839;54.448;-0.944;2023-12-20T11:50:20;0.4;;;0.2;;
83824;SDS011;73839;54.448;-0.944;2023-12-20T11:53:20;0.3;;;0.1;;
83824;SDS011;73839;54.448;-0.944;2023-12-20T11:56:20;0.5;;;0.2;;
83824;SDS011;73839;54.448;-0.944;2023-12-20T11:59:20;0.3;;;0.2;;
83824;SDS011;73839;54.448;-0.944;2023-12-20T12:02:20;0.4;;;0.3;;
83824;SDS011;73839;54.448;-0.944;2023-12-20T12:05:20;1.3;;;0.2;;
83824;SDS011;73839;54.448;-0.944;2023-12-20T12:08:20;0.7;;;0.2;;
83824;SDS011;73839;54.448;-0.944;2023-12-20T12:11:20;0.3;;;0.1;;
83824;SDS011;73839;54.448;-0.944;2023-12-20T12:14:20;0.2;;;0.1;;
83824;SDS011;73839;54.448;-0.944;2023-12-20T12:17:20;0.8;;;0.2;;
83824;SDS011;73839;54.448;-0.944;2023-12-20T12:20:20;0.3;;;0.1;;
83824;SDS011;73839;54.448;-0.944;2023-12-20T12:23:23;1;;;0.2;;
83824;SDS011;73839;54.448;-0.944;2023-12-20T12:26:20;0.3;;;0.1;;
83824;SDS011;73839;54.448;-0.944;2023-12-20T12:29:20;0.4;;;0.1;;
83824;SDS011;73839;54.448;-0.944;2023-12-20T12:32:20;0.1;;;0;;
83824;SDS011;73839;54.448;-0.944;2023-12-20T12:35:20;0.1;;;0.1;;
83824;SDS011;73839;54.448;-0.944;2023-12-20T12:38:20;0.3;;;0.1;;
83824;SDS011;73839;54.448;-0.944;2023-12-20T12:41:20;0.4;;;0.1;;
83824;SDS011;73839;54.448;-0.944;2023-12-20T12:44:20;0.2;;;0.2;;
83824;SDS011;73839;54.448;-0.944;2023-12-20T12:47:20;0.2;;;0.1;;
83824;SDS011;73839;54.448;-0.944;2023-12-20T12:50:20;0.4;;;0.1;;
83824;SDS011;73839;54.448;-0.944;2023-12-20T12:53:20;0.2;;;0.1;;
83824;SDS011;73839;54.448;-0.944;2023-12-20T12:56:20;0.4;;;0.2;;
83824;SDS011;73839;54.448;-0.944;2023-12-20T12:59:20;0.2;;;0;;
83824;SDS011;73839;54.448;-0.944;2023-12-20T13:02:20;0.3;;;0.1;;
83824;SDS011;73839;54.448;-0.944;2023-12-20T13:05:20;0.3;;;0.1;;
83824;SDS011;73839;54.448;-0.944;2023-12-20T13:08:20;0.4;;;0.1;;
83824;SDS011;73839;54.448;-0.944;2023-12-20T13:11:20;0.4;;;0.2;;
83824;SDS011;73839;54.448;-0.944;2023-12-20T13:14:20;0.2;;;0.1;;
83824;SDS011;73839;54.448;-0.944;2023-12-20T13:17:20;0.2;;;0.1;;
83824;SDS011;73839;54.448;-0.944;2023-12-20T13:20:20;0.2;;;0.1;;
83824;SDS011;73839;54.448;-0.944;2023-12-20T13:23:20;0.3;;;0.1;;
83824;SDS011;73839;54.448;-0.944;2023-12-20T13:26:20;0.2;;;0.1;;
83824;SDS011;73839;54.448;-0.944;2023-12-20T13:29:20;0.3;;;0.1;;
83824;SDS011;73839;54.448;-0.944;2023-12-20T13:32:50;0.3;;;0.1;;
83824;SDS011;73839;54.448;-0.944;2023-12-20T13:35:50;0.5;;;0.1;;
83824;SDS011;73839;54.448;-0.944;2023-12-20T13:38:50;0.8;;;0.1;;
83824;SDS011;73839;54.448;-0.944;2023-12-20T13:41:50;0.9;;;0.1;;
83824;SDS011;73839;54.448;-0.944;2023-12-20T13:44:50;0.4;;;0.2;;
83824;SDS011;73839;54.448;-0.944;2023-12-20T13:47:50;0.2;;;0.1;;
83824;SDS011;73839;54.448;-0.944;2023-12-20T13:50:50;0.4;;;0.1;;
83824;SDS011;73839;54.448;-0.944;2023-12-20T13:53:50;0.5;;;0.1;;
83824;SDS011;73839;54.448;-0.944;2023-12-20T13:56:50;0.4;;;0.3;;
83824;SDS011;73839;54.448;-0.944;2023-12-20T13:59:50;0.3;;;0.1;;
83824;SDS011;73839;54.448;-0.944;2023-12-20T14:02:50;0.1;;;0.1;;
83824;SDS011;73839;54.448;-0.944;2023-12-20T14:05:50;0.3;;;0.1;;
83824;SDS011;73839;54.448;-0.944;2023-12-20T14:08:50;0.3;;;0.1;;
83824;SDS011;73839;54.448;-0.944;2023-12-20T14:11:50;0.2;;;0.2;;
83824;SDS011;73839;54.448;-0.944;2023-12-20T14:14:50;0.3;;;0.1;;
83824;SDS011;73839;54.448;-0.944;2023-12-20T14:17:50;0.3;;;0.1;;
83824;SDS011;73839;54.448;-0.944;2023-12-20T14:20:50;0.1;;;0;;
83824;SDS011;73839;54.448;-0.944;2023-12-20T14:23:50;0.2;;;0.1;;
83824;SDS011;73839;54.448;-0.944;2023-12-20T14:26:50;0.3;;;0.1;;
83824;SDS011;73839;54.448;-0.944;2023-12-20T14:29:50;0.1;;;0.1;;
83824;SDS011;73839;54.448;-0.944;2023-12-20T14:32:50;0.1;;;0.1;;
83824;SDS011;73839;54.448;-0.944;2023-12-20T14:35:50;0.3;;;0.1;;
83824;SDS011;73839;54.448;-0.944;2023-12-20T14:38:50;0.4;;;0.1;;
83824;SDS011;73839;54.448;-0.944;2023-12-20T14:41:50;0.1;;;0.1;;
83824;SDS011;73839;54.448;-0.944;2023-12-20T14:44:50;0.2;;;0.1;;
83824;SDS011;73839;54.448;-0.944;2023-12-20T14:47:50;0.1;;;0;;
83824;SDS011;73839;54.448;-0.944;2023-12-20T14:50:50;0.2;;;0;;
83824;SDS011;73839;54.448;-0.944;2023-12-20T14:53:50;0.1;;;0;;
83824;SDS011;73839;54.448;-0.944;2023-12-20T14:56:50;0.2;;;0.1;;
83824;SDS011;73839;54.448;-0.944;2023-12-20T14:59:50;0.3;;;0.1;;
83824;SDS011;73839;54.448;-0.944;2023-12-20T15:02:50;0.2;;;0.1;;
83824;SDS011;73839;54.448;-0.944;2023-12-20T15:05:50;0.6;;;0.1;;
83824;SDS011;73839;54.448;-0.944;2023-12-20T15:08:50;0.1;;;0;;
83824;SDS011;73839;54.448;-0.944;2023-12-20T15:11:50;0.1;;;0;;
83824;SDS011;73839;54.448;-0.944;2023-12-20T15:14:50;0.2;;;0.1;;
83824;SDS011;73839;54.448;-0.944;2023-12-20T15:17:50;0.2;;;0.1;;
83824;SDS011;73839;54.448;-0.944;2023-12-20T15:20:50;0.2;;;0;;
83824;SDS011;73839;54.448;-0.944;2023-12-20T15:23:50;0.5;;;0.1;;
83824;SDS011;73839;54.448;-0.944;2023-12-20T15:26:50;0.1;;;0.1;;
83824;SDS011;73839;54.448;-0.944;2023-12-20T15:29:50;0.2;;;0.1;;
83824;SDS011;73839;54.448;-0.944;2023-12-20T15:32:50;0.2;;;0;;
83824;SDS011;73839;54.448;-0.944;2023-12-20T15:35:50;0.2;;;0.1;;
83824;SDS011;73839;54.448;-0.944;2023-12-20T15:38:50;0.2;;;0.1;;
83824;SDS011;73839;54.448;-0.944;2023-12-20T15:41:50;0.2;;;0.1;;
83824;SDS011;73839;54.448;-0.944;2023-12-20T15:44:50;0.3;;;0.2;;
83824;SDS011;73839;54.448;-0.944;2023-12-20T15:47:50;0.2;;;0.1;;
83824;SDS011;73839;54.448;-0.944;2023-12-20T15:50:50;0.2;;;0.1;;
83824;SDS011;73839;54.448;-0.944;2023-12-20T15:53:50;0.7;;;0.1;;
83824;SDS011;73839;54.448;-0.944;2023-12-20T15:56:50;0.3;;;0.1;;
83824;SDS011;73839;54.448;-0.944;2023-12-20T16:00:20;0.1;;;0.1;;
83824;SDS011;73839;54.448;-0.944;2023-12-20T16:03:20;0.4;;;0.1;;
83824;SDS011;73839;54.448;-0.944;2023-12-20T16:06:20;0.2;;;0;;
83824;SDS011;73839;54.448;-0.944;2023-12-20T16:09:20;0.1;;;0;;
83824;SDS011;73839;54.448;-0.944;2023-12-20T16:12:20;0.1;;;0;;
83824;SDS011;73839;54.448;-0.944;2023-12-20T16:15:20;0.2;;;0.2;;
83824;SDS011;73839;54.448;-0.944;2023-12-20T16:18:20;0.1;;;0;;
83824;SDS011;73839;54.448;-0.944;2023-12-20T16:21:20;0.1;;;0.1;;
83824;SDS011;73839;54.448;-0.944;2023-12-20T16:24:20;0.3;;;0.1;;
83824;SDS011;73839;54.448;-0.944;2023-12-20T16:27:20;0.1;;;0.1;;
83824;SDS011;73839;54.448;-0.944;2023-12-20T16:30:20;0.1;;;0;;
83824;SDS011;73839;54.448;-0.944;2023-12-20T16:33:20;0.2;;;0.1;;
83824;SDS011;73839;54.448;-0.944;2023-12-20T16:36:20;0.4;;;0.1;;
83824;SDS011;73839;54.448;-0.944;2023-12-20T16:39:20;0.1;;;0;;
83824;SDS011;73839;54.448;-0.944;2023-12-20T16:42:20;0.2;;;0.1;;
83824;SDS011;73839;54.448;-0.944;2023-12-20T16:45:20;0.4;;;0.1;;
83824;SDS011;73839;54.448;-0.944;2023-12-20T16:48:20;0.5;;;0.1;;
83824;SDS011;73839;54.448;-0.944;2023-12-20T16:51:20;1;;;0.2;;
83824;SDS011;73839;54.448;-0.944;2023-12-20T16:54:20;0.2;;;0.1;;
83824;SDS011;73839;54.448;-0.944;2023-12-20T16:57:20;1.1;;;0.1;;
83824;SDS011;73839;54.448;-0.944;2023-12-20T17:00:20;0.5;;;0.2;;
83824;SDS011;73839;54.448;-0.944;2023-12-20T17:03:20;0.7;;;0.1;;
83824;SDS011;73839;54.448;-0.944;2023-12-20T17:06:20;0.7;;;0.4;;
83824;SDS011;73839;54.448;-0.944;2023-12-20T17:09:20;0.6;;;0.2;;
83824;SDS011;73839;54.448;-0.944;2023-12-20T17:12:20;2.1;;;0.2;;
83824;SDS011;73839;54.448;-0.944;2023-12-20T17:15:20;3.1;;;0.2;;
83824;SDS011;73839;54.448;-0.944;2023-12-20T17:18:20;1.4;;;0.2;;
83824;SDS011;73839;54.448;-0.944;2023-12-20T17:21:20;0.4;;;0.1;;
83824;SDS011;73839;54.448;-0.944;2023-12-20T17:24:20;2.5;;;0.2;;
83824;SDS011;73839;54.448;-0.944;2023-12-20T17:27:20;1.1;;;0.2;;
83824;SDS011;73839;54.448;-0.944;2023-12-20T17:30:20;1.1;;;0.2;;
83824;SDS011;73839;54.448;-0.944;2023-12-20T17:33:20;2.8;;;0.2;;
83824;SDS011;73839;54.448;-0.944;2023-12-20T17:36:20;1;;;0.3;;
83824;SDS011;73839;54.448;-0.944;2023-12-20T17:39:20;0.6;;;0.2;;
83824;SDS011;73839;54.448;-0.944;2023-12-20T17:42:20;0.4;;;0.1;;
83824;SDS011;73839;54.448;-0.944;2023-12-20T17:45:20;0.3;;;0.1;;
83824;SDS011;73839;54.448;-0.944;2023-12-20T17:48:20;0.6;;;0.1;;
83824;SDS011;73839;54.448;-0.944;2023-12-20T17:51:20;1.4;;;0.3;;
83824;SDS011;73839;54.448;-0.944;2023-12-20T17:54:20;0.5;;;0.1;;
83824;SDS011;73839;54.448;-0.944;2023-12-20T17:57:20;1.2;;;0.3;;
83824;SDS011;73839;54.448;-0.944;2023-12-20T18:00:21;1.3;;;0.2;;
83824;SDS011;73839;54.448;-0.944;2023-12-20T18:03:20;0.5;;;0.1;;
83824;SDS011;73839;54.448;-0.944;2023-12-20T18:06:20;1.1;;;0.1;;
83824;SDS011;73839;54.448;-0.944;2023-12-20T18:09:20;1.4;;;0.1;;
83824;SDS011;73839;54.448;-0.944;2023-12-20T18:12:20;1.1;;;0.4;;
83824;SDS011;73839;54.448;-0.944;2023-12-20T18:15:20;1.2;;;0.4;;
83824;SDS011;73839;54.448;-0.944;2023-12-20T18:18:20;1.6;;;0.3;;
83824;SDS011;73839;54.448;-0.944;2023-12-20T18:21:20;1.9;;;0.3;;
83824;SDS011;73839;54.448;-0.944;2023-12-20T18:24:20;1.6;;;0.5;;
83824;SDS011;73839;54.448;-0.944;2023-12-20T18:27:50;1.6;;;0.4;;
83824;SDS011;73839;54.448;-0.944;2023-12-20T18:30:50;2.3;;;0.6;;
83824;SDS011;73839;54.448;-0.944;2023-12-20T18:33:50;2.2;;;0.6;;
83824;SDS011;73839;54.448;-0.944;2023-12-20T18:36:50;1.8;;;0.4;;
83824;SDS011;73839;54.448;-0.944;2023-12-20T18:39:50;2.8;;;0.6;;
83824;SDS011;73839;54.448;-0.944;2023-12-20T18:42:50;3.5;;;0.6;;
83824;SDS011;73839;54.448;-0.944;2023-12-20T18:45:50;3.4;;;0.5;;